sensor_id;sensor_type;location;lat;lon;timestamp;pressure;altitude;pressure_sealevel;temperature;humidity
41636;BME280;27623;51.966;4.602;2023-08-08T00:00:49;64947.88;;;17.64;100.00
41636;BME280;27623;51.966;4.602;2023-08-08T00:03:14;64947.63;;;17.64;100.00
41636;BME280;27623;51.966;4.602;2023-08-08T00:05:39;64947.19;;;17.63;100.00
41636;BME280;27623;51.966;4.602;2023-08-08T00:08:07;64946.63;;;17.63;100.00
41636;BME280;27623;51.966;4.602;2023-08-08T00:10:33;64946.63;;;17.63;100.00
41636;BME280;27623;51.966;4.602;2023-08-08T00:12:58;64947.34;;;17.63;100.00
41636;BME280;27623;51.966;4.602;2023-08-08T00:15:23;64947.88;;;17.64;100.00
41636;BME280;27623;51.966;4.602;2023-08-08T00:17:49;64948.16;;;17.64;100.00
41636;BME280;27623;51.966;4.602;2023-08-08T00:20:14;64948.53;;;17.65;100.00
41636;BME280;27623;51.966;4.602;2023-08-08T00:22:40;64948.91;;;17.65;100.00
41636;BME280;27623;51.966;4.602;2023-08-08T00:25:06;64949.03;;;17.66;100.00
41636;BME280;27623;51.966;4.602;2023-08-08T00:27:31;64949.31;;;17.66;100.00
41636;BME280;27623;51.966;4.602;2023-08-08T00:29:57;64949.63;;;17.66;100.00
41636;BME280;27623;51.966;4.602;2023-08-08T00:32:22;64950.06;;;17.66;100.00
41636;BME280;27623;51.966;4.602;2023-08-08T00:34:50;64950.34;;;17.66;100.00
41636;BME280;27623;51.966;4.602;2023-08-08T00:37:18;64950.75;;;17.67;100.00
41636;BME280;27623;51.966;4.602;2023-08-08T00:39:43;64950.75;;;17.67;100.00
41636;BME280;27623;51.966;4.602;2023-08-08T00:42:12;64951.19;;;17.67;100.00
41636;BME280;27623;51.966;4.602;2023-08-08T00:44:40;64951.63;;;17.67;100.00
41636;BME280;27623;51.966;4.602;2023-08-08T00:47:09;64952.22;;;17.67;100.00
41636;BME280;27623;51.966;4.602;2023-08-08T00:49:35;64952.22;;;17.67;100.00
41636;BME280;27623;51.966;4.602;2023-08-08T00:52:02;64951.50;;;17.67;100.00
41636;BME280;27623;51.966;4.602;2023-08-08T00:54:30;64951.41;;;17.67;100.00
41636;BME280;27623;51.966;4.602;2023-08-08T00:56:56;64951.31;;;17.66;100.00
41636;BME280;27623;51.966;4.602;2023-08-08T00:59:22;64950.75;;;17.66;100.00
41636;BME280;27623;51.966;4.602;2023-08-08T01:01:48;64950.38;;;17.65;100.00
41636;BME280;27623;51.966;4.602;2023-08-08T01:04:14;64949.72;;;17.65;100.00
41636;BME280;27623;51.966;4.602;2023-08-08T01:09:42;64947.97;;;17.63;100.00
41636;BME280;27623;51.966;4.602;2023-08-08T01:12:11;64947.31;;;17.62;100.00
41636;BME280;27623;51.966;4.602;2023-08-08T01:14:38;64946.66;;;17.61;100.00
41636;BME280;27623;51.966;4.602;2023-08-08T01:17:07;64945.84;;;17.60;100.00
41636;BME280;27623;51.966;4.602;2023-08-08T01:19:33;64945.28;;;17.60;100.00
41636;BME280;27623;51.966;4.602;2023-08-08T01:22:05;64944.56;;;17.59;100.00
41636;BME280;27623;51.966;4.602;2023-08-08T01:24:32;64943.75;;;17.59;100.00
41636;BME280;27623;51.966;4.602;2023-08-08T01:27:00;64942.66;;;17.58;100.00
41636;BME280;27623;51.966;4.602;2023-08-08T01:29:26;64941.41;;;17.57;100.00
41636;BME280;27623;51.966;4.602;2023-08-08T01:31:52;64940.16;;;17.56;100.00
41636;BME280;27623;51.966;4.602;2023-08-08T01:34:17;64939.66;;;17.55;100.00
41636;BME280;27623;51.966;4.602;2023-08-08T01:39:22;64937.69;;;17.53;100.00
41636;BME280;27623;51.966;4.602;2023-08-08T01:41:48;64936.53;;;17.52;100.00
41636;BME280;27623;51.966;4.602;2023-08-08T01:44:14;64935.59;;;17.51;100.00
41636;BME280;27623;51.966;4.602;2023-08-08T01:46:40;64935.06;;;17.51;100.00
41636;BME280;27623;51.966;4.602;2023-08-08T01:49:05;64934.50;;;17.50;100.00
41636;BME280;27623;51.966;4.602;2023-08-08T01:51:32;64933.09;;;17.49;100.00
41636;BME280;27623;51.966;4.602;2023-08-08T01:53:58;64932.03;;;17.48;100.00
41636;BME280;27623;51.966;4.602;2023-08-08T01:56:23;64930.41;;;17.47;100.00
41636;BME280;27623;51.966;4.602;2023-08-08T01:58:49;64928.03;;;17.45;100.00
41636;BME280;27623;51.966;4.602;2023-08-08T02:01:14;64925.84;;;17.43;100.00
41636;BME280;27623;51.966;4.602;2023-08-08T02:03:39;64924.03;;;17.41;100.00
41636;BME280;27623;51.966;4.602;2023-08-08T02:06:05;64922.66;;;17.40;100.00
41636;BME280;27623;51.966;4.602;2023-08-08T02:08:30;64921.44;;;17.39;100.00
41636;BME280;27623;51.966;4.602;2023-08-08T02:10:55;64920.09;;;17.38;99.91
41636;BME280;27623;51.966;4.602;2023-08-08T02:13:21;64918.59;;;17.36;100.00
41636;BME280;27623;51.966;4.602;2023-08-08T02:15:48;64916.94;;;17.34;98.26
41636;BME280;27623;51.966;4.602;2023-08-08T02:18:14;64915.31;;;17.33;96.89
41636;BME280;27623;51.966;4.602;2023-08-08T02:20:39;64913.34;;;17.31;98.02
41636;BME280;27623;51.966;4.602;2023-08-08T02:23:04;64912.47;;;17.30;98.44
41636;BME280;27623;51.966;4.602;2023-08-08T02:25:30;64911.56;;;17.29;96.65
41636;BME280;27623;51.966;4.602;2023-08-08T02:27:56;64909.72;;;17.28;95.98
41636;BME280;27623;51.966;4.602;2023-08-08T02:30:24;64908.19;;;17.26;94.37
41636;BME280;27623;51.966;4.602;2023-08-08T02:32:49;64906.81;;;17.25;92.00
41636;BME280;27623;51.966;4.602;2023-08-08T02:35:14;64905.63;;;17.24;92.62
41636;BME280;27623;51.966;4.602;2023-08-08T02:37:40;64904.06;;;17.23;92.75
41636;BME280;27623;51.966;4.602;2023-08-08T02:40:06;64902.13;;;17.21;92.12
41636;BME280;27623;51.966;4.602;2023-08-08T02:42:31;64901.03;;;17.20;92.07
41636;BME280;27623;51.966;4.602;2023-08-08T02:44:59;64898.97;;;17.18;89.91
41636;BME280;27623;51.966;4.602;2023-08-08T02:47:24;64897.31;;;17.17;92.39
41636;BME280;27623;51.966;4.602;2023-08-08T02:49:52;64895.97;;;17.15;91.81
41636;BME280;27623;51.966;4.602;2023-08-08T02:52:17;64894.63;;;17.14;88.03
41636;BME280;27623;51.966;4.602;2023-08-08T02:54:43;64893.00;;;17.12;89.91
41636;BME280;27623;51.966;4.602;2023-08-08T02:57:08;64891.78;;;17.11;91.27
41636;BME280;27623;51.966;4.602;2023-08-08T02:59:37;64890.13;;;17.10;87.91
41636;BME280;27623;51.966;4.602;2023-08-08T03:02:02;64888.13;;;17.08;86.34
41636;BME280;27623;51.966;4.602;2023-08-08T03:04:31;64886.19;;;17.06;85.01
41636;BME280;27623;51.966;4.602;2023-08-08T03:06:58;64885.00;;;17.05;87.26
41636;BME280;27623;51.966;4.602;2023-08-08T03:09:26;64882.66;;;17.03;86.08
41636;BME280;27623;51.966;4.602;2023-08-08T03:11:51;64880.91;;;17.01;88.43
41636;BME280;27623;51.966;4.602;2023-08-08T03:14:17;64879.41;;;16.99;89.33
41636;BME280;27623;51.966;4.602;2023-08-08T03:16:42;64878.00;;;16.98;87.79
41636;BME280;27623;51.966;4.602;2023-08-08T03:19:10;64876.91;;;16.97;87.97
41636;BME280;27623;51.966;4.602;2023-08-08T03:21:37;64876.25;;;16.96;88.19
41636;BME280;27623;51.966;4.602;2023-08-08T03:24:03;64875.00;;;16.95;86.81
41636;BME280;27623;51.966;4.602;2023-08-08T03:26:28;64874.13;;;16.95;86.80
41636;BME280;27623;51.966;4.602;2023-08-08T03:28:56;64873.63;;;16.94;86.17
41636;BME280;27623;51.966;4.602;2023-08-08T03:31:24;64871.53;;;16.92;82.49
41636;BME280;27623;51.966;4.602;2023-08-08T03:33:51;64870.03;;;16.91;82.69
41636;BME280;27623;51.966;4.602;2023-08-08T03:36:16;64868.22;;;16.90;82.39
41636;BME280;27623;51.966;4.602;2023-08-08T03:38:41;64867.28;;;16.89;82.74
41636;BME280;27623;51.966;4.602;2023-08-08T03:41:11;64866.34;;;16.88;82.41
41636;BME280;27623;51.966;4.602;2023-08-08T03:43:37;64865.53;;;16.87;83.09
41636;BME280;27623;51.966;4.602;2023-08-08T03:46:02;64864.72;;;16.86;83.45
41636;BME280;27623;51.966;4.602;2023-08-08T03:48:28;64863.28;;;16.85;77.83
41636;BME280;27623;51.966;4.602;2023-08-08T03:50:53;64862.91;;;16.84;78.18
41636;BME280;27623;51.966;4.602;2023-08-08T03:53:18;64861.41;;;16.83;78.17
41636;BME280;27623;51.966;4.602;2023-08-08T03:55:44;64860.84;;;16.83;78.57
41636;BME280;27623;51.966;4.602;2023-08-08T03:58:09;64859.75;;;16.82;77.89
41636;BME280;27623;51.966;4.602;2023-08-08T04:00:35;64859.31;;;16.81;78.17
41636;BME280;27623;51.966;4.602;2023-08-08T04:03:00;64859.19;;;16.81;80.52
41636;BME280;27623;51.966;4.602;2023-08-08T04:05:27;64858.38;;;16.80;80.29
41636;BME280;27623;51.966;4.602;2023-08-08T04:07:53;64857.00;;;16.79;80.97
41636;BME280;27623;51.966;4.602;2023-08-08T04:10:18;64855.66;;;16.78;81.37
41636;BME280;27623;51.966;4.602;2023-08-08T04:12:43;64854.56;;;16.77;81.89
41636;BME280;27623;51.966;4.602;2023-08-08T04:15:09;64853.19;;;16.76;83.12
41636;BME280;27623;51.966;4.602;2023-08-08T04:17:37;64851.25;;;16.74;80.08
41636;BME280;27623;51.966;4.602;2023-08-08T04:20:02;64849.75;;;16.73;80.58
41636;BME280;27623;51.966;4.602;2023-08-08T04:22:30;64848.22;;;16.71;79.89
41636;BME280;27623;51.966;4.602;2023-08-08T04:24:56;64847.00;;;16.70;81.81
41636;BME280;27623;51.966;4.602;2023-08-08T04:27:21;64845.91;;;16.69;82.51
41636;BME280;27623;51.966;4.602;2023-08-08T04:29:47;64844.94;;;16.68;81.17
41636;BME280;27623;51.966;4.602;2023-08-08T04:32:14;64843.59;;;16.67;80.79
41636;BME280;27623;51.966;4.602;2023-08-08T04:34:39;64841.81;;;16.65;80.34
41636;BME280;27623;51.966;4.602;2023-08-08T04:37:07;64841.13;;;16.64;78.96
41636;BME280;27623;51.966;4.602;2023-08-08T04:39:32;64839.47;;;16.63;80.30
41636;BME280;27623;51.966;4.602;2023-08-08T04:41:58;64838.56;;;16.62;82.70
41636;BME280;27623;51.966;4.602;2023-08-08T04:44:23;64836.88;;;16.61;82.91
41636;BME280;27623;51.966;4.602;2023-08-08T04:46:48;64835.22;;;16.59;80.77
41636;BME280;27623;51.966;4.602;2023-08-08T04:49:16;64833.59;;;16.58;79.59
41636;BME280;27623;51.966;4.602;2023-08-08T04:51:41;64831.78;;;16.56;79.11
41636;BME280;27623;51.966;4.602;2023-08-08T04:54:06;64830.69;;;16.55;80.08
41636;BME280;27623;51.966;4.602;2023-08-08T04:56:32;64829.31;;;16.54;80.73
41636;BME280;27623;51.966;4.602;2023-08-08T04:58:57;64828.63;;;16.53;81.84
41636;BME280;27623;51.966;4.602;2023-08-08T05:01:22;64827.91;;;16.53;78.49
41636;BME280;27623;51.966;4.602;2023-08-08T05:03:48;64827.63;;;16.53;79.56
41636;BME280;27623;51.966;4.602;2023-08-08T05:06:13;64826.81;;;16.52;80.09
41636;BME280;27623;51.966;4.602;2023-08-08T05:08:39;64825.88;;;16.51;79.47
41636;BME280;27623;51.966;4.602;2023-08-08T05:11:04;64825.09;;;16.50;79.83
41636;BME280;27623;51.966;4.602;2023-08-08T05:13:32;64825.44;;;16.50;80.11
41636;BME280;27623;51.966;4.602;2023-08-08T05:15:57;64825.44;;;16.50;80.53
41636;BME280;27623;51.966;4.602;2023-08-08T05:18:22;64825.88;;;16.50;81.66
41636;BME280;27623;51.966;4.602;2023-08-08T05:20:48;64826.13;;;16.50;82.98
41636;BME280;27623;51.966;4.602;2023-08-08T05:23:13;64825.47;;;16.49;81.46
41636;BME280;27623;51.966;4.602;2023-08-08T05:25:42;64825.63;;;16.49;84.55
41636;BME280;27623;51.966;4.602;2023-08-08T05:28:07;64825.13;;;16.49;82.32
41636;BME280;27623;51.966;4.602;2023-08-08T05:30:32;64825.31;;;16.49;83.72
41636;BME280;27623;51.966;4.602;2023-08-08T05:32:58;64825.03;;;16.48;84.10
41636;BME280;27623;51.966;4.602;2023-08-08T05:35:24;64824.44;;;16.48;84.32
41636;BME280;27623;51.966;4.602;2023-08-08T05:37:49;64824.53;;;16.48;85.75
41636;BME280;27623;51.966;4.602;2023-08-08T05:40:14;64824.22;;;16.48;85.06
41636;BME280;27623;51.966;4.602;2023-08-08T05:42:40;64824.34;;;16.49;83.91
41636;BME280;27623;51.966;4.602;2023-08-08T05:45:08;64824.50;;;16.49;84.26
41636;BME280;27623;51.966;4.602;2023-08-08T05:47:33;64824.78;;;16.49;85.60
41636;BME280;27623;51.966;4.602;2023-08-08T05:49:59;64824.19;;;16.49;84.02
41636;BME280;27623;51.966;4.602;2023-08-08T05:52:24;64824.22;;;16.48;83.36
41636;BME280;27623;51.966;4.602;2023-08-08T05:54:50;64824.66;;;16.49;83.62
41636;BME280;27623;51.966;4.602;2023-08-08T05:57:15;64824.66;;;16.49;82.79
41636;BME280;27623;51.966;4.602;2023-08-08T05:59:40;64824.78;;;16.49;84.87
41636;BME280;27623;51.966;4.602;2023-08-08T06:02:06;64825.16;;;16.49;83.66
41636;BME280;27623;51.966;4.602;2023-08-08T06:04:33;64825.75;;;16.50;79.34
41636;BME280;27623;51.966;4.602;2023-08-08T06:06:59;64825.91;;;16.50;80.23
41636;BME280;27623;51.966;4.602;2023-08-08T06:09:25;64825.75;;;16.50;81.15
41636;BME280;27623;51.966;4.602;2023-08-08T06:11:52;64825.75;;;16.50;80.18
41636;BME280;27623;51.966;4.602;2023-08-08T06:14:18;64825.91;;;16.50;81.45
41636;BME280;27623;51.966;4.602;2023-08-08T06:16:46;64825.81;;;16.49;82.36
41636;BME280;27623;51.966;4.602;2023-08-08T06:19:14;64826.34;;;16.50;79.74
41636;BME280;27623;51.966;4.602;2023-08-08T06:21:41;64826.91;;;16.50;81.97
41636;BME280;27623;51.966;4.602;2023-08-08T06:24:06;64827.59;;;16.51;81.37
41636;BME280;27623;51.966;4.602;2023-08-08T06:26:32;64828.69;;;16.52;80.55
41636;BME280;27623;51.966;4.602;2023-08-08T06:28:57;64829.41;;;16.53;78.69
41636;BME280;27623;51.966;4.602;2023-08-08T06:31:24;64831.03;;;16.54;77.66
41636;BME280;27623;51.966;4.602;2023-08-08T06:33:52;64832.31;;;16.55;79.00
41636;BME280;27623;51.966;4.602;2023-08-08T06:36:18;64833.28;;;16.56;75.58
41636;BME280;27623;51.966;4.602;2023-08-08T06:38:44;64834.38;;;16.57;76.85
41636;BME280;27623;51.966;4.602;2023-08-08T06:41:12;64835.03;;;16.58;77.62
41636;BME280;27623;51.966;4.602;2023-08-08T06:43:40;64835.97;;;16.59;76.26
41636;BME280;27623;51.966;4.602;2023-08-08T06:46:05;64837.88;;;16.60;78.23
41636;BME280;27623;51.966;4.602;2023-08-08T06:48:31;64839.25;;;16.62;79.46
41636;BME280;27623;51.966;4.602;2023-08-08T06:50:56;64841.59;;;16.64;78.24
41636;BME280;27623;51.966;4.602;2023-08-08T06:53:24;64843.56;;;16.65;77.11
41636;BME280;27623;51.966;4.602;2023-08-08T06:55:49;64846.31;;;16.68;75.08
41636;BME280;27623;51.966;4.602;2023-08-08T06:58:14;64848.94;;;16.70;75.46
41636;BME280;27623;51.966;4.602;2023-08-08T07:00:40;64851.41;;;16.72;76.81
41636;BME280;27623;51.966;4.602;2023-08-08T07:03:05;64853.44;;;16.74;76.36
41636;BME280;27623;51.966;4.602;2023-08-08T07:05:31;64855.19;;;16.76;75.08
41636;BME280;27623;51.966;4.602;2023-08-08T07:07:56;64856.66;;;16.78;74.26
41636;BME280;27623;51.966;4.602;2023-08-08T07:10:22;64858.69;;;16.80;76.38
41636;BME280;27623;51.966;4.602;2023-08-08T07:12:47;64860.50;;;16.81;74.67
41636;BME280;27623;51.966;4.602;2023-08-08T07:15:13;64862.53;;;16.83;75.09
41636;BME280;27623;51.966;4.602;2023-08-08T07:17:39;64863.72;;;16.84;75.24
41636;BME280;27623;51.966;4.602;2023-08-08T07:20:05;64865.06;;;16.86;76.39
41636;BME280;27623;51.966;4.602;2023-08-08T07:22:31;64866.84;;;16.88;79.60
41636;BME280;27623;51.966;4.602;2023-08-08T07:24:57;64868.63;;;16.89;76.09
41636;BME280;27623;51.966;4.602;2023-08-08T07:27:22;64869.69;;;16.90;75.11
41636;BME280;27623;51.966;4.602;2023-08-08T07:29:48;64870.56;;;16.92;74.26
41636;BME280;27623;51.966;4.602;2023-08-08T07:32:13;64872.66;;;16.93;75.27
41636;BME280;27623;51.966;4.602;2023-08-08T07:34:38;64874.84;;;16.95;74.99
41636;BME280;27623;51.966;4.602;2023-08-08T07:37:04;64876.44;;;16.97;75.34
41636;BME280;27623;51.966;4.602;2023-08-08T07:39:30;64877.91;;;16.99;72.39
41636;BME280;27623;51.966;4.602;2023-08-08T07:41:55;64879.81;;;17.00;73.61
41636;BME280;27623;51.966;4.602;2023-08-08T07:44:22;64881.47;;;17.02;71.42
41636;BME280;27623;51.966;4.602;2023-08-08T07:46:48;64883.97;;;17.04;72.91
41636;BME280;27623;51.966;4.602;2023-08-08T07:49:13;64886.41;;;17.06;69.89
41636;BME280;27623;51.966;4.602;2023-08-08T07:51:38;64888.72;;;17.09;68.39
41636;BME280;27623;51.966;4.602;2023-08-08T07:54:04;64891.06;;;17.11;65.96
41636;BME280;27623;51.966;4.602;2023-08-08T07:56:34;64893.09;;;17.13;68.06
41636;BME280;27623;51.966;4.602;2023-08-08T07:58:59;64895.72;;;17.15;68.17
41636;BME280;27623;51.966;4.602;2023-08-08T08:01:25;64897.81;;;17.17;68.56
41636;BME280;27623;51.966;4.602;2023-08-08T08:03:52;64900.38;;;17.19;69.11
41636;BME280;27623;51.966;4.602;2023-08-08T08:06:17;64902.56;;;17.21;68.81
41636;BME280;27623;51.966;4.602;2023-08-08T08:08:43;64905.03;;;17.24;68.81
41636;BME280;27623;51.966;4.602;2023-08-08T08:11:08;64907.38;;;17.26;68.53
41636;BME280;27623;51.966;4.602;2023-08-08T08:13:33;64909.44;;;17.27;70.60
41636;BME280;27623;51.966;4.602;2023-08-08T08:15:59;64912.41;;;17.30;67.68
41636;BME280;27623;51.966;4.602;2023-08-08T08:18:24;64915.47;;;17.32;67.24
41636;BME280;27623;51.966;4.602;2023-08-08T08:20:49;64918.63;;;17.35;66.26
41636;BME280;27623;51.966;4.602;2023-08-08T08:23:15;64922.78;;;17.39;65.75
41636;BME280;27623;51.966;4.602;2023-08-08T08:25:41;64926.06;;;17.42;67.45
41636;BME280;27623;51.966;4.602;2023-08-08T08:28:06;64929.78;;;17.45;67.05
41636;BME280;27623;51.966;4.602;2023-08-08T08:30:31;64933.06;;;17.48;66.37
41636;BME280;27623;51.966;4.602;2023-08-08T08:32:57;64936.63;;;17.51;65.37
41636;BME280;27623;51.966;4.602;2023-08-08T08:35:27;64939.91;;;17.54;63.59
41636;BME280;27623;51.966;4.602;2023-08-08T08:37:54;64942.22;;;17.57;63.32
41636;BME280;27623;51.966;4.602;2023-08-08T08:40:20;64945.22;;;17.59;63.57
41636;BME280;27623;51.966;4.602;2023-08-08T08:42:46;64948.63;;;17.63;64.98
41636;BME280;27623;51.966;4.602;2023-08-08T08:45:16;64951.28;;;17.65;64.25
41636;BME280;27623;51.966;4.602;2023-08-08T08:47:48;64954.00;;;17.67;65.69
41636;BME280;27623;51.966;4.602;2023-08-08T08:50:15;64957.16;;;17.70;66.36
41636;BME280;27623;51.966;4.602;2023-08-08T08:52:43;64960.56;;;17.74;63.48
41636;BME280;27623;51.966;4.602;2023-08-08T08:55:09;64964.66;;;17.77;63.04
41636;BME280;27623;51.966;4.602;2023-08-08T08:57:39;64967.13;;;17.80;63.96
41636;BME280;27623;51.966;4.602;2023-08-08T09:00:06;64970.03;;;17.82;63.11
41636;BME280;27623;51.966;4.602;2023-08-08T09:02:32;64973.59;;;17.85;65.76
41636;BME280;27623;51.966;4.602;2023-08-08T09:05:00;64977.69;;;17.89;65.30
41636;BME280;27623;51.966;4.602;2023-08-08T09:07:29;64982.06;;;17.93;63.54
41636;BME280;27623;51.966;4.602;2023-08-08T09:09:56;64985.63;;;17.97;58.50
41636;BME280;27623;51.966;4.602;2023-08-08T09:12:22;64988.53;;;17.99;61.10
41636;BME280;27623;51.966;4.602;2023-08-08T09:14:55;64991.44;;;18.02;62.83
41636;BME280;27623;51.966;4.602;2023-08-08T09:17:21;64994.28;;;18.05;63.40
41636;BME280;27623;51.966;4.602;2023-08-08T09:19:46;64997.91;;;18.08;63.40
41636;BME280;27623;51.966;4.602;2023-08-08T09:22:13;65002.41;;;18.12;61.48
41636;BME280;27623;51.966;4.602;2023-08-08T09:24:42;65007.41;;;18.16;61.73
41636;BME280;27623;51.966;4.602;2023-08-08T09:27:10;65011.72;;;18.19;60.12
41636;BME280;27623;51.966;4.602;2023-08-08T09:29:36;65016.38;;;18.24;61.26
41636;BME280;27623;51.966;4.602;2023-08-08T09:32:06;65021.31;;;18.28;63.41
41636;BME280;27623;51.966;4.602;2023-08-08T09:34:31;65028.03;;;18.34;62.56
41636;BME280;27623;51.966;4.602;2023-08-08T09:36:58;65033.13;;;18.39;62.59
41636;BME280;27623;51.966;4.602;2023-08-08T09:39:23;65037.19;;;18.42;60.61
41636;BME280;27623;51.966;4.602;2023-08-08T09:41:50;65039.38;;;18.44;61.88
41636;BME280;27623;51.966;4.602;2023-08-08T09:44:15;65042.38;;;18.47;62.07
41636;BME280;27623;51.966;4.602;2023-08-08T09:46:40;65045.81;;;18.50;62.09
41636;BME280;27623;51.966;4.602;2023-08-08T09:49:10;65047.31;;;18.52;62.83
41636;BME280;27623;51.966;4.602;2023-08-08T09:51:36;65049.50;;;18.54;63.91
41636;BME280;27623;51.966;4.602;2023-08-08T09:54:04;65050.59;;;18.55;63.65
41636;BME280;27623;51.966;4.602;2023-08-08T09:56:32;65051.97;;;18.56;64.56
41636;BME280;27623;51.966;4.602;2023-08-08T09:59:01;65053.44;;;18.58;65.43
41636;BME280;27623;51.966;4.602;2023-08-08T10:01:33;65055.50;;;18.60;64.44
41636;BME280;27623;51.966;4.602;2023-08-08T10:03:59;65058.19;;;18.62;64.81
41636;BME280;27623;51.966;4.602;2023-08-08T10:06:27;65062.75;;;18.66;65.02
41636;BME280;27623;51.966;4.602;2023-08-08T10:08:52;65066.47;;;18.70;62.10
41636;BME280;27623;51.966;4.602;2023-08-08T10:11:18;65071.53;;;18.74;62.35
41636;BME280;27623;51.966;4.602;2023-08-08T10:13:49;65075.88;;;18.79;59.75
41636;BME280;27623;51.966;4.602;2023-08-08T10:16:16;65080.53;;;18.83;61.71
41636;BME280;27623;51.966;4.602;2023-08-08T10:18:42;65085.75;;;18.88;60.73
41636;BME280;27623;51.966;4.602;2023-08-08T10:21:07;65089.19;;;18.91;60.54
41636;BME280;27623;51.966;4.602;2023-08-08T10:23:36;65092.75;;;18.94;61.98
41636;BME280;27623;51.966;4.602;2023-08-08T10:26:16;65096.75;;;18.98;62.70
41636;BME280;27623;51.966;4.602;2023-08-08T10:28:52;65100.31;;;19.01;58.99
41636;BME280;27623;51.966;4.602;2023-08-08T10:31:20;65104.03;;;19.04;59.92
41636;BME280;27623;51.966;4.602;2023-08-08T10:33:45;65107.66;;;19.08;60.79
41636;BME280;27623;51.966;4.602;2023-08-08T10:36:13;65110.53;;;19.11;62.11
41636;BME280;27623;51.966;4.602;2023-08-08T10:38:46;65114.66;;;19.14;62.03
41636;BME280;27623;51.966;4.602;2023-08-08T10:41:21;65119.13;;;19.19;61.76
41636;BME280;27623;51.966;4.602;2023-08-08T10:43:51;65126.69;;;19.26;60.71
41636;BME280;27623;51.966;4.602;2023-08-08T10:46:25;65135.00;;;19.34;56.88
41636;BME280;27623;51.966;4.602;2023-08-08T10:48:52;65141.91;;;19.40;57.53
41636;BME280;27623;51.966;4.602;2023-08-08T10:51:18;65150.25;;;19.48;57.48
41636;BME280;27623;51.966;4.602;2023-08-08T10:53:45;65159.03;;;19.56;55.79
41636;BME280;27623;51.966;4.602;2023-08-08T10:56:13;65166.56;;;19.63;55.34
41636;BME280;27623;51.966;4.602;2023-08-08T10:58:40;65173.75;;;19.69;55.86
41636;BME280;27623;51.966;4.602;2023-08-08T11:01:06;65180.31;;;19.75;57.89
41636;BME280;27623;51.966;4.602;2023-08-08T11:03:36;65186.38;;;19.81;58.09
41636;BME280;27623;51.966;4.602;2023-08-08T11:06:03;65188.69;;;19.83;58.02
41636;BME280;27623;51.966;4.602;2023-08-08T11:08:32;65192.09;;;19.86;57.80
41636;BME280;27623;51.966;4.602;2023-08-08T11:10:59;65196.16;;;19.89;57.90
41636;BME280;27623;51.966;4.602;2023-08-08T11:13:24;65201.91;;;19.95;57.95
41636;BME280;27623;51.966;4.602;2023-08-08T11:15:50;65207.66;;;20.00;57.29
41636;BME280;27623;51.966;4.602;2023-08-08T11:18:16;65213.16;;;20.05;58.34
41636;BME280;27623;51.966;4.602;2023-08-08T11:20:44;65217.59;;;20.09;58.29
41636;BME280;27623;51.966;4.602;2023-08-08T11:23:14;65220.34;;;20.12;58.43
41636;BME280;27623;51.966;4.602;2023-08-08T11:25:47;65223.09;;;20.14;58.32
41636;BME280;27623;51.966;4.602;2023-08-08T11:28:12;65223.75;;;20.15;58.78
41636;BME280;27623;51.966;4.602;2023-08-08T11:30:41;65225.31;;;20.17;59.78
41636;BME280;27623;51.966;4.602;2023-08-08T11:33:12;65226.47;;;20.17;57.54
41636;BME280;27623;51.966;4.602;2023-08-08T11:35:45;65226.91;;;20.18;58.04
41636;BME280;27623;51.966;4.602;2023-08-08T11:38:12;65227.84;;;20.19;57.69
41636;BME280;27623;51.966;4.602;2023-08-08T11:40:39;65231.72;;;20.22;56.28
41636;BME280;27623;51.966;4.602;2023-08-08T11:43:04;65233.50;;;20.24;56.69
41636;BME280;27623;51.966;4.602;2023-08-08T11:45:31;65234.03;;;20.24;57.49
41636;BME280;27623;51.966;4.602;2023-08-08T11:47:57;65235.47;;;20.25;58.67
41636;BME280;27623;51.966;4.602;2023-08-08T11:50:26;65238.47;;;20.28;57.95
41636;BME280;27623;51.966;4.602;2023-08-08T11:52:54;65241.72;;;20.31;57.21
41636;BME280;27623;51.966;4.602;2023-08-08T11:55:20;65240.25;;;20.30;57.92
41636;BME280;27623;51.966;4.602;2023-08-08T11:57:48;65241.47;;;20.31;58.91
41636;BME280;27623;51.966;4.602;2023-08-08T12:00:13;65244.59;;;20.34;58.14
41636;BME280;27623;51.966;4.602;2023-08-08T12:02:40;65249.22;;;20.39;57.22
41636;BME280;27623;51.966;4.602;2023-08-08T12:05:12;65256.22;;;20.45;54.08
41636;BME280;27623;51.966;4.602;2023-08-08T12:07:38;65261.78;;;20.50;54.13
41636;BME280;27623;51.966;4.602;2023-08-08T12:10:17;65263.16;;;20.51;57.11
41636;BME280;27623;51.966;4.602;2023-08-08T12:12:44;65269.63;;;20.57;57.93
41636;BME280;27623;51.966;4.602;2023-08-08T12:15:11;65277.28;;;20.64;56.22
41636;BME280;27623;51.966;4.602;2023-08-08T12:17:39;65285.66;;;20.72;55.03
41636;BME280;27623;51.966;4.602;2023-08-08T12:20:06;65294.63;;;20.81;52.15
41636;BME280;27623;51.966;4.602;2023-08-08T12:22:32;65300.97;;;20.86;51.11
41636;BME280;27623;51.966;4.602;2023-08-08T12:24:58;65307.22;;;20.92;52.09
41636;BME280;27623;51.966;4.602;2023-08-08T12:27:24;65313.59;;;20.98;52.14
41636;BME280;27623;51.966;4.602;2023-08-08T12:29:49;65320.28;;;21.04;52.32
41636;BME280;27623;51.966;4.602;2023-08-08T12:32:14;65325.19;;;21.09;51.84
41636;BME280;27623;51.966;4.602;2023-08-08T12:34:42;65332.44;;;21.16;52.02
41636;BME280;27623;51.966;4.602;2023-08-08T12:37:09;65340.00;;;21.23;49.90
41636;BME280;27623;51.966;4.602;2023-08-08T12:39:37;65347.88;;;21.30;50.62
41636;BME280;27623;51.966;4.602;2023-08-08T12:42:03;65354.84;;;21.37;49.06
41636;BME280;27623;51.966;4.602;2023-08-08T12:44:28;65363.41;;;21.44;48.72
41636;BME280;27623;51.966;4.602;2023-08-08T12:46:53;65373.72;;;21.54;49.05
41636;BME280;27623;51.966;4.602;2023-08-08T12:49:19;65384.88;;;21.64;48.71
41636;BME280;27623;51.966;4.602;2023-08-08T12:51:44;65394.03;;;21.72;47.58
41636;BME280;27623;51.966;4.602;2023-08-08T12:54:09;65400.41;;;21.78;47.61
41636;BME280;27623;51.966;4.602;2023-08-08T12:56:35;65406.13;;;21.84;49.24
41636;BME280;27623;51.966;4.602;2023-08-08T12:59:01;65416.88;;;21.93;48.01